Time;durP1;ratioP1;P1;durP2;ratioP2;P2;SDS_P1;SDS_P2;PMS_P1;PMS_P2;Temp;Humidity;BMP_temperature;BMP_pressure;BME280_temperature;BME280_humidity;BME280_pressure;Samples;Min_cycle;Max_cycle;Signal;HPM_P1;HPM_P2
2023/06/03 00:00:41;;;;;;;17.50;11.88;;;;;;;15.05;88.10;151066.72;5064415;28;20092;-70
2023/06/03 00:03:13;;;;;;;22.13;13.70;;;;;;;15.05;88.70;151066.72;5063340;28;20084;-72
2023/06/03 00:05:42;;;;;;;14.15;11.73;;;;;;;15.04;88.89;151064.19;5063308;28;20352;-72
2023/06/03 00:08:08;;;;;;;14.88;11.40;;;;;;;14.96;88.55;151046.19;5063969;28;20032;-72
2023/06/03 00:10:33;;;;;;;12.15;10.20;;;;;;;15.09;88.29;151078.34;5060207;28;20033;-72
2023/06/03 00:12:59;;;;;;;15.65;10.95;;;;;;;14.82;87.94;151010.09;5057658;28;20024;-71
2023/06/03 00:15:25;;;;;;;18.85;11.15;;;;;;;14.99;87.72;151053.88;5063290;28;20088;-72
2023/06/03 00:17:50;;;;;;;17.33;10.60;;;;;;;14.99;87.60;151052.56;5063865;28;20032;-72
2023/06/03 00:20:16;;;;;;;16.13;9.88;;;;;;;14.90;87.92;151030.72;5063052;28;20056;-71
2023/06/03 00:22:42;;;;;;;14.80;9.63;;;;;;;14.95;87.65;151043.59;5044030;28;20068;-72
2023/06/03 00:25:08;;;;;;;13.27;9.27;;;;;;;14.87;87.47;151023.00;5059333;28;20033;-73
2023/06/03 00:27:38;;;;;;;14.75;9.88;;;;;;;14.70;87.61;150980.53;5064142;28;20096;-71
2023/06/03 00:30:05;;;;;;;14.05;8.55;;;;;;;14.85;87.20;151017.88;5063769;28;20147;-71
2023/06/03 00:32:32;;;;;;;15.18;8.45;;;;;;;14.86;86.49;151019.13;5063524;28;20029;-72
2023/06/03 00:34:57;;;;;;;11.50;7.95;;;;;;;14.79;87.57;151003.72;5063798;28;20028;-73
2023/06/03 00:37:23;;;;;;;13.27;8.23;;;;;;;14.62;88.79;150961.25;5063843;28;20301;-71
2023/06/03 00:39:49;;;;;;;12.68;8.60;;;;;;;14.71;88.05;150981.81;5057866;28;20025;-71
2023/06/03 00:42:14;;;;;;;14.95;9.30;;;;;;;14.61;88.11;150958.63;5063656;28;20037;-71
2023/06/03 00:44:40;;;;;;;11.70;8.85;;;;;;;14.49;87.67;150927.75;5063536;28;20029;-72
2023/06/03 00:47:07;;;;;;;12.73;9.82;;;;;;;14.47;87.33;150922.63;5063804;28;20088;-71
2023/06/03 00:49:34;;;;;;;12.65;9.48;;;;;;;14.44;87.01;150914.91;5063585;28;20029;-71
2023/06/03 00:52:01;;;;;;;13.95;9.90;;;;;;;14.49;87.29;150929.06;5063134;28;20107;-71
2023/06/03 00:54:27;;;;;;;13.27;11.25;;;;;;;14.26;87.06;150871.16;5063207;28;20039;-70
2023/06/03 00:56:53;;;;;;;15.77;10.57;;;;;;;14.25;86.88;150868.59;5063441;28;20084;-70
2023/06/03 00:59:20;;;;;;;12.30;9.25;;;;;;;14.27;86.49;150872.47;5063485;28;20037;-71
2023/06/03 01:01:46;;;;;;;11.05;9.73;;;;;;;14.16;86.82;150845.44;5043538;28;20085;-72
2023/06/03 01:04:16;;;;;;;11.65;9.45;;;;;;;14.22;86.58;150859.59;5058684;28;20090;-72
2023/06/03 01:07:06;;;;;;;10.38;8.48;;;;;;;14.29;87.44;150878.91;5067603;28;20056;-72
2023/06/03 01:09:53;;;;;;;12.60;8.85;;;;;;;14.31;85.48;150882.75;5065097;28;20047;-71
2023/06/03 01:12:29;;;;;;;10.95;8.38;;;;;;;14.26;85.94;150871.16;5063088;28;20048;-72
2023/06/03 01:14:59;;;;;;;9.50;8.52;;;;;;;14.24;86.35;150864.75;5061998;28;20033;-70
2023/06/03 01:17:28;;;;;;;12.40;7.82;;;;;;;14.25;86.37;150868.59;5063161;28;20021;-72
2023/06/03 01:19:56;;;;;;;10.50;9.20;;;;;;;14.30;86.64;150881.44;5062136;28;20078;-71
2023/06/03 01:22:28;;;;;;;14.02;9.45;;;;;;;14.35;86.34;150891.72;5061993;28;20044;-71
2023/06/03 01:25:05;;;;;;;14.43;9.98;;;;;;;14.31;86.42;150884.03;5049874;28;20029;-70
2023/06/03 01:27:32;;;;;;;13.07;10.32;;;;;;;14.35;86.30;150893.06;5052960;28;20048;-70
2023/06/03 01:29:58;;;;;;;14.95;10.80;;;;;;;14.31;86.20;150884.03;5061586;28;20096;-71
2023/06/03 01:32:24;;;;;;;12.55;10.55;;;;;;;14.32;86.37;150886.63;5063075;28;20047;-71
2023/06/03 01:34:51;;;;;;;12.25;10.68;;;;;;;14.35;86.34;150891.72;5062658;28;20067;-70
2023/06/03 01:37:17;;;;;;;13.00;9.98;;;;;;;14.35;87.02;150891.72;5058497;28;20048;-70
2023/06/03 01:39:43;;;;;;;14.55;11.38;;;;;;;14.29;87.51;150878.91;5053796;28;20021;-72
2023/06/03 01:42:10;;;;;;;11.77;9.57;;;;;;;14.38;87.02;150899.44;5062835;28;20028;-73
2023/06/03 01:44:36;;;;;;;14.63;10.50;;;;;;;14.41;87.19;150907.16;5062780;28;20033;-72
2023/06/03 01:47:03;;;;;;;14.10;10.50;;;;;;;14.31;87.75;150884.03;5062826;28;20032;-73
2023/06/03 01:49:31;;;;;;;13.40;10.60;;;;;;;14.28;86.98;150876.31;5061514;28;20100;-72
2023/06/03 01:52:00;;;;;;;12.65;9.93;;;;;;;14.31;87.44;150882.75;5062561;28;20032;-70
2023/06/03 01:54:27;;;;;;;16.08;10.95;;;;;;;14.31;87.27;150882.75;5062884;28;20028;-70
2023/06/03 01:56:53;;;;;;;12.15;9.55;;;;;;;14.32;87.42;150885.28;5062795;28;20028;-72
2023/06/03 01:59:23;;;;;;;12.25;10.27;;;;;;;14.24;87.90;150866.03;5062782;28;20035;-71
2023/06/03 02:01:52;;;;;;;13.40;10.55;;;;;;;14.28;88.59;150875.00;5058187;28;20036;-72
2023/06/03 02:04:18;;;;;;;13.18;9.52;;;;;;;14.30;88.71;150881.44;5058566;28;20096;-68
2023/06/03 02:06:48;;;;;;;12.20;9.85;;;;;;;14.22;88.17;150859.59;5062628;28;20210;-70
2023/06/03 02:09:13;;;;;;;16.52;10.88;;;;;;;14.00;88.28;150804.31;5062704;28;20347;-71
2023/06/03 02:11:42;;;;;;;12.02;10.25;;;;;;;13.95;88.21;150794.03;5061326;28;20025;-70
2023/06/03 02:14:08;;;;;;;11.07;9.60;;;;;;;14.05;88.00;150817.16;5062615;28;20040;-70
2023/06/03 02:16:33;;;;;;;12.40;8.80;;;;;;;14.14;88.55;150840.31;5062725;28;20075;-70
2023/06/03 02:19:03;;;;;;;71.95;52.28;;;;;;;14.14;89.20;150840.31;5062487;28;20040;-71
2023/06/03 02:21:28;;;;;;;14.65;9.95;;;;;;;14.05;89.79;150818.47;5061687;28;20028;-71
2023/06/03 02:23:54;;;;;;;11.23;10.05;;;;;;;14.03;90.51;150812.03;5062336;28;20025;-70
2023/06/03 02:26:19;;;;;;;9.77;8.60;;;;;;;13.69;89.99;150727.16;5061394;28;20029;-70
2023/06/03 02:28:45;;;;;;;9.80;8.23;;;;;;;13.85;90.34;150767.00;5062247;28;20052;-70
2023/06/03 02:31:10;;;;;;;8.05;7.15;;;;;;;13.92;89.33;150786.31;5062399;28;20308;-70
2023/06/03 02:33:36;;;;;;;6.15;5.55;;;;;;;13.84;89.39;150764.41;5062304;28;20033;-70
2023/06/03 02:36:02;;;;;;;4.75;4.35;;;;;;;13.74;89.10;150740.03;5062219;28;20143;-71
2023/06/03 02:38:28;;;;;;;5.20;4.70;;;;;;;13.57;89.51;150697.63;5064863;28;20048;-69
2023/06/03 02:40:53;;;;;;;5.13;4.63;;;;;;;13.77;89.33;150749.00;5065691;28;20317;-69
2023/06/03 02:43:19;;;;;;;6.22;4.57;;;;;;;13.86;89.11;150770.88;5065890;28;20056;-73
2023/06/03 02:45:44;;;;;;;6.65;4.60;;;;;;;13.75;89.60;150743.91;5065540;28;20318;-74
2023/06/03 02:48:10;;;;;;;4.60;3.92;;;;;;;13.79;87.85;150754.13;5065992;28;20032;-72
2023/06/03 02:50:36;;;;;;;5.68;4.00;;;;;;;13.63;88.05;150713.03;5065712;28;20025;-70
2023/06/03 02:53:01;;;;;;;3.95;3.38;;;;;;;13.75;88.80;150742.56;5065473;28;20074;-72
2023/06/03 02:55:27;;;;;;;3.38;3.05;;;;;;;13.67;87.33;150723.31;5067951;28;20051;-74
2023/06/03 02:57:53;;;;;;;3.00;2.63;;;;;;;13.64;88.20;150715.63;5063572;28;20029;-72
2023/06/03 03:00:19;;;;;;;3.80;2.58;;;;;;;13.57;88.63;150697.63;5052759;28;20298;-72
2023/06/03 03:02:45;;;;;;;2.50;2.20;;;;;;;13.49;86.77;150678.31;5065549;28;20025;-71
2023/06/03 03:05:10;;;;;;;2.53;2.33;;;;;;;13.48;86.74;150675.72;5065495;28;20044;-70
2023/06/03 03:07:37;;;;;;;3.00;2.00;;;;;;;13.38;86.96;150651.34;5061071;28;20091;-69
2023/06/03 03:10:04;;;;;;;2.30;2.10;;;;;;;13.46;87.50;150671.88;5058333;28;20037;-70
2023/06/03 03:12:30;;;;;;;2.25;2.05;;;;;;;13.42;86.22;150660.31;5063957;28;20350;-70
2023/06/03 03:14:56;;;;;;;3.28;2.15;;;;;;;13.34;86.83;150639.69;5064956;28;20025;-70
2023/06/03 03:17:21;;;;;;;2.85;2.58;;;;;;;13.26;88.17;150621.72;5065203;28;20040;-70
2023/06/03 03:19:47;;;;;;;2.30;2.10;;;;;;;13.16;88.64;150596.03;5065068;28;20029;-69
2023/06/03 03:22:13;;;;;;;2.78;1.60;;;;;;;12.91;86.79;150533.06;5065287;28;20093;-69
2023/06/03 03:24:40;;;;;;;2.80;1.92;;;;;;;12.99;86.98;150552.34;5065161;28;20273;-70
2023/06/03 03:27:07;;;;;;;1.77;1.40;;;;;;;13.02;86.28;150561.31;5064960;28;20029;-69
2023/06/03 03:29:33;;;;;;;1.63;1.35;;;;;;;13.09;86.40;150578.03;5065157;28;20051;-69
2023/06/03 03:32:07;;;;;;;2.83;1.58;;;;;;;13.07;86.24;150572.91;5064926;28;20033;-69
2023/06/03 03:34:36;;;;;;;2.30;1.25;;;;;;;12.87;87.70;150524.06;5064999;28;20025;-68
2023/06/03 03:37:03;;;;;;;1.65;1.52;;;;;;;12.73;88.93;150489.38;5066886;28;20021;-70
2023/06/03 03:39:29;;;;;;;1.58;1.48;;;;;;;12.84;87.37;150515.06;5051021;28;20030;-70
2023/06/03 03:41:54;;;;;;;2.92;1.35;;;;;;;12.83;87.66;150513.81;5064677;28;20047;-72
2023/06/03 03:44:20;;;;;;;2.40;1.75;;;;;;;12.85;88.69;150518.91;5065082;28;20025;-72
2023/06/03 03:46:58;;;;;;;2.78;1.75;;;;;;;12.84;87.07;150516.38;5064570;28;20043;-72
2023/06/03 03:49:34;;;;;;;2.88;1.70;;;;;;;12.93;87.35;150538.22;5064442;28;20500;-69
2023/06/03 03:52:04;;;;;;;2.33;1.70;;;;;;;12.92;86.91;150536.91;5062790;28;20075;-69
2023/06/03 03:54:30;;;;;;;2.72;2.10;;;;;;;12.93;87.41;150538.22;5064790;28;20043;-70
2023/06/03 03:56:57;;;;;;;1.88;1.60;;;;;;;12.84;87.68;150516.38;5064409;28;20198;-70
2023/06/03 03:59:26;;;;;;;3.42;2.00;;;;;;;12.85;87.59;150517.66;5064634;28;20041;-69
2023/06/03 04:01:52;;;;;;;2.00;1.90;;;;;;;12.90;86.86;150531.78;5064118;28;20029;-70
2023/06/03 04:04:38;;;;;;;2.13;1.77;;;;;;;13.02;87.41;150560.03;5064438;28;20025;-71
2023/06/03 04:07:03;;;;;;;2.20;2.00;;;;;;;13.11;87.40;150583.16;5063811;28;20040;-71
2023/06/03 04:09:29;;;;;;;2.92;1.75;;;;;;;13.10;87.35;150580.63;5064343;28;20195;-70
2023/06/03 04:11:55;;;;;;;1.88;1.70;;;;;;;13.11;86.44;150584.47;5063843;28;20024;-71
2023/06/03 04:14:44;;;;;;;2.65;1.73;;;;;;;13.03;86.58;150562.63;5063182;28;20025;-70
2023/06/03 04:17:12;;;;;;;2.35;1.70;;;;;;;13.00;86.87;150556.19;5044003;28;20038;-68
2023/06/03 04:19:41;;;;;;;1.55;1.45;;;;;;;12.94;86.89;150542.06;5061328;28;20029;-70
2023/06/03 04:22:08;;;;;;;7.90;1.63;;;;;;;13.01;86.20;150558.78;5063471;28;20047;-69
2023/06/03 04:24:35;;;;;;;2.05;1.58;;;;;;;12.95;85.57;150543.34;5064125;28;20029;-69
2023/06/03 04:27:04;;;;;;;1.35;1.25;;;;;;;12.90;85.53;150530.50;5063678;28;20036;-68
2023/06/03 04:29:32;;;;;;;2.80;1.60;;;;;;;12.88;87.20;150525.34;5064129;28;20099;-70
2023/06/03 04:31:58;;;;;;;1.48;1.30;;;;;;;12.89;86.28;150527.94;5058487;28;20322;-70
2023/06/03 04:34:27;;;;;;;1.65;1.30;;;;;;;12.88;86.82;150526.66;5063781;28;20082;-71
2023/06/03 04:36:53;;;;;;;1.88;1.25;;;;;;;12.92;86.26;150536.91;5063538;28;20017;-70
2023/06/03 04:39:19;;;;;;;3.08;1.40;;;;;;;12.90;86.96;150530.50;5063405;28;20111;-71
2023/06/03 04:41:45;;;;;;;2.58;1.60;;;;;;;12.79;86.07;150503.50;5063030;28;20333;-70
2023/06/03 04:44:11;;;;;;;1.40;1.30;;;;;;;12.85;85.57;150518.91;5063252;28;20222;-71
2023/06/03 04:46:37;;;;;;;2.03;1.30;;;;;;;12.86;85.48;150521.50;5063440;28;20029;-71
2023/06/03 04:49:03;;;;;;;1.83;1.50;;;;;;;12.86;85.15;150520.22;5062238;28;20221;-69
2023/06/03 04:51:33;;;;;;;1.20;1.10;;;;;;;12.77;84.50;150498.41;5063434;28;20025;-70
2023/06/03 04:54:00;;;;;;;3.17;1.13;;;;;;;12.68;84.42;150475.25;5063265;28;20021;-69
2023/06/03 04:56:28;;;;;;;1.33;1.23;;;;;;;12.67;85.28;150472.66;5063436;28;20477;-69
2023/06/03 04:59:00;;;;;;;2.63;1.40;;;;;;;12.58;85.13;150452.16;5063255;28;20040;-70
2023/06/03 05:01:27;;;;;;;1.27;1.10;;;;;;;12.50;85.32;150431.59;5058176;28;20037;-70
2023/06/03 05:03:53;;;;;;;1.55;1.40;;;;;;;12.49;84.95;150429.00;5053919;28;20032;-71
2023/06/03 05:06:19;;;;;;;1.30;1.20;;;;;;;12.49;87.38;150429.00;5062002;28;20319;-69
2023/06/03 05:08:47;;;;;;;1.60;1.50;;;;;;;12.45;84.24;150417.47;5063159;28;20029;-71
2023/06/03 05:11:15;;;;;;;1.23;1.13;;;;;;;12.51;85.09;150432.88;5061887;28;20032;-70
2023/06/03 05:13:41;;;;;;;1.52;1.38;;;;;;;12.55;84.69;150443.16;5061866;28;20052;-70
2023/06/03 05:16:06;;;;;;;1.45;1.35;;;;;;;12.60;84.51;150456.00;5063038;28;20025;-70
2023/06/03 05:18:32;;;;;;;1.58;1.48;;;;;;;12.50;84.43;150431.59;5064305;28;20025;-72
2023/06/03 05:20:58;;;;;;;1.95;1.23;;;;;;;12.57;84.87;150449.56;5063785;28;20025;-70
2023/06/03 05:23:23;;;;;;;2.42;1.45;;;;;;;12.64;84.28;150464.97;5063474;28;20049;-71
2023/06/03 05:25:49;;;;;;;3.67;1.70;;;;;;;12.64;84.36;150466.28;5062967;28;20289;-71
2023/06/03 05:28:15;;;;;;;1.80;1.70;;;;;;;12.57;85.12;150449.56;5063074;28;20092;-71
2023/06/03 05:30:40;;;;;;;2.13;1.90;;;;;;;12.61;83.66;150458.53;5062919;28;20045;-70
2023/06/03 05:33:06;;;;;;;1.92;1.83;;;;;;;12.48;84.32;150426.44;5062916;28;20088;-71
2023/06/03 05:35:31;;;;;;;2.70;1.60;;;;;;;12.30;86.42;150381.53;5062747;28;20025;-71
2023/06/03 05:37:57;;;;;;;2.40;1.70;;;;;;;12.29;86.75;150378.94;5062638;28;20025;-71
2023/06/03 05:40:23;;;;;;;1.58;1.48;;;;;;;11.90;86.00;150281.34;5062890;28;20135;-70
2023/06/03 05:42:48;;;;;;;1.88;1.77;;;;;;;12.21;86.41;150358.38;5062545;28;20318;-71
2023/06/03 05:45:15;;;;;;;1.90;1.80;;;;;;;12.23;85.34;150363.53;5062812;28;20196;-72
2023/06/03 05:47:40;;;;;;;2.30;2.03;;;;;;;12.08;86.10;150327.59;5062174;28;20043;-71
2023/06/03 05:50:06;;;;;;;2.75;1.98;;;;;;;11.96;86.03;150295.50;5060569;28;20310;-69
2023/06/03 05:52:32;;;;;;;2.38;2.00;;;;;;;12.02;85.88;150310.88;5061284;28;20037;-72
2023/06/03 05:54:58;;;;;;;2.63;2.42;;;;;;;11.94;87.58;150290.34;5062433;28;20017;-72
2023/06/03 05:57:24;;;;;;;3.95;2.45;;;;;;;11.99;87.62;150303.19;5062123;28;20055;-70
2023/06/03 05:59:51;;;;;;;2.58;2.38;;;;;;;11.96;86.53;150295.50;5062140;28;20095;-71
2023/06/03 06:02:20;;;;;;;2.78;2.50;;;;;;;11.82;85.79;150262.03;5061147;28;20052;-70
2023/06/03 06:04:47;;;;;;;2.72;2.20;;;;;;;11.93;86.29;150289.03;5062646;28;20292;-74
2023/06/03 06:07:12;;;;;;;3.10;2.28;;;;;;;11.92;86.50;150286.44;5062811;28;20040;-70
2023/06/03 06:09:38;;;;;;;3.30;2.83;;;;;;;11.89;86.41;150278.75;5062641;28;20341;-72
2023/06/03 06:12:04;;;;;;;5.03;2.40;;;;;;;12.00;86.49;150305.72;5064207;28;20032;-71
2023/06/03 06:14:30;;;;;;;7.63;2.65;;;;;;;11.98;85.56;150301.88;5066671;28;20021;-73
2023/06/03 06:16:56;;;;;;;3.05;2.75;;;;;;;11.79;86.60;150254.34;5065607;28;20030;-74
2023/06/03 06:19:24;;;;;;;3.22;2.92;;;;;;;11.91;87.42;150285.19;5066005;28;20056;-71
2023/06/03 06:21:50;;;;;;;2.83;2.30;;;;;;;11.66;86.97;150221.00;5066020;28;20060;-73
2023/06/03 06:24:16;;;;;;;4.75;2.72;;;;;;;11.80;85.39;150256.94;5061892;28;20079;-71
2023/06/03 06:26:42;;;;;;;4.40;2.47;;;;;;;11.89;86.21;150280.00;5058356;28;20083;-73
2023/06/03 06:29:07;;;;;;;3.47;2.83;;;;;;;11.83;86.30;150264.63;5065917;28;20033;-72
2023/06/03 06:31:33;;;;;;;3.17;2.88;;;;;;;11.82;85.88;150260.78;5066657;28;20076;-68
2023/06/03 06:33:59;;;;;;;2.83;2.42;;;;;;;11.87;87.51;150274.91;5068209;28;20027;-69
2023/06/03 06:36:49;;;;;;;4.35;3.13;;;;;;;11.90;86.14;150282.59;5068233;28;20059;-69
2023/06/03 06:40:01;;;;;;;4.75;3.20;;;;;;;11.90;86.72;150281.34;5053826;28;20032;-68
2023/06/03 06:42:33;;;;;;;3.33;3.03;;;;;;;11.98;86.21;150301.88;5052824;28;20041;-70
2023/06/03 06:45:09;;;;;;;4.82;2.90;;;;;;;11.94;85.47;150291.59;5067029;28;20048;-71
2023/06/03 06:47:37;;;;;;;3.30;2.97;;;;;;;12.05;85.37;150318.59;5066257;28;20031;-70
2023/06/03 06:50:07;;;;;;;3.55;3.22;;;;;;;12.00;85.64;150305.72;5065967;28;20037;-69
2023/06/03 06:52:34;;;;;;;3.85;2.92;;;;;;;11.94;83.60;150291.59;5061477;28;20021;-72
2023/06/03 06:55:00;;;;;;;3.58;3.10;;;;;;;11.79;84.57;150254.34;5071925;28;20040;-71
2023/06/03 06:57:28;;;;;;;4.20;3.25;;;;;;;11.57;85.36;150200.44;5065823;28;20090;-73
2023/06/03 06:59:54;;;;;;;4.13;3.30;;;;;;;11.89;85.74;150280.00;5064980;28;20028;-74
2023/06/03 07:02:21;;;;;;;3.40;3.10;;;;;;;11.77;85.26;150249.19;5065337;28;20029;-67
2023/06/03 07:04:50;;;;;;;3.90;3.60;;;;;;;11.84;84.33;150265.91;5064786;28;20032;-69
2023/06/03 07:07:16;;;;;;;3.55;3.25;;;;;;;11.92;84.50;150286.44;5064986;28;20040;-68
2023/06/03 07:09:42;;;;;;;5.28;3.67;;;;;;;11.74;84.43;150241.50;5065213;28;20213;-70
2023/06/03 07:12:08;;;;;;;4.93;3.00;;;;;;;11.70;83.33;150232.53;5063235;28;20020;-68
2023/06/03 07:14:34;;;;;;;5.93;3.50;;;;;;;11.63;83.43;150213.25;5064456;28;20032;-70
2023/06/03 07:17:00;;;;;;;3.55;3.25;;;;;;;11.68;83.26;150227.38;5064823;28;20667;-69
2023/06/03 07:19:46;;;;;;;6.38;4.13;;;;;;;11.63;85.56;150214.56;5063843;28;20344;-69
2023/06/03 07:22:11;;;;;;;3.83;3.20;;;;;;;11.54;83.91;150192.75;5060280;28;20056;-67
2023/06/03 07:24:37;;;;;;;4.32;3.50;;;;;;;11.66;84.65;150221.00;5044498;28;20053;-70
2023/06/03 07:27:07;;;;;;;6.32;3.25;;;;;;;11.48;85.01;150176.06;5047693;28;20079;-70
2023/06/03 07:29:38;;;;;;;3.45;2.88;;;;;;;11.45;84.25;150169.63;5065023;28;20033;-70
2023/06/03 07:32:07;;;;;;;3.83;3.42;;;;;;;11.45;84.17;150169.63;5064953;28;20029;-71
2023/06/03 07:34:33;;;;;;;6.38;3.20;;;;;;;11.47;85.19;150174.78;5064673;28;20037;-69
2023/06/03 07:37:02;;;;;;;3.20;2.92;;;;;;;11.47;84.46;150173.47;5063509;28;20033;-69
2023/06/03 07:39:28;;;;;;;2.97;2.00;;;;;;;11.34;84.63;150141.41;5064702;28;20207;-70
2023/06/03 07:41:54;;;;;;;2.72;2.47;;;;;;;11.35;84.99;150145.25;5064665;28;20043;-71
2023/06/03 07:44:44;;;;;;;6.00;2.60;;;;;;;11.29;86.28;150129.88;5064769;28;20028;-70
2023/06/03 07:47:13;;;;;;;2.55;2.08;;;;;;;11.11;86.85;150084.94;5044691;28;20029;-70
2023/06/03 07:49:39;;;;;;;1.60;1.50;;;;;;;11.09;86.23;150078.50;5058738;28;20297;-69
2023/06/03 07:52:04;;;;;;;2.30;1.70;;;;;;;11.20;85.06;150108.06;5062689;28;20036;-72
2023/06/03 07:54:30;;;;;;;2.80;1.85;;;;;;;11.04;85.93;150066.97;5064178;28;20031;-71
2023/06/03 07:57:00;;;;;;;2.33;1.83;;;;;;;10.62;86.17;149961.84;5063744;28;20027;-70
2023/06/03 07:59:26;;;;;;;3.13;1.50;;;;;;;10.82;85.83;150013.13;5063681;28;20049;-69
2023/06/03 08:01:53;;;;;;;3.13;1.20;;;;;;;10.62;86.54;149963.09;5062607;28;20029;-69
2023/06/03 08:04:21;;;;;;;2.35;1.42;;;;;;;10.91;86.79;150034.91;5064262;28;20029;-70
2023/06/03 08:06:49;;;;;;;4.57;1.75;;;;;;;10.65;86.61;149970.78;5063611;28;20068;-71
2023/06/03 08:09:34;;;;;;;2.38;1.48;;;;;;;10.01;87.29;149810.47;5063622;28;20225;-70
2023/06/03 08:12:09;;;;;;;1.85;1.33;;;;;;;10.56;86.55;149946.41;5061902;28;20020;-69
2023/06/03 08:14:38;;;;;;;3.33;3.03;;;;;;;10.40;86.60;149906.66;5062281;28;20043;-73
2023/06/03 08:17:11;;;;;;;3.25;1.45;;;;;;;10.35;87.03;149896.41;5063959;28;20029;-73
2023/06/03 08:19:37;;;;;;;1.90;1.40;;;;;;;10.36;87.15;149898.97;5063388;28;20067;-72
2023/06/03 08:22:36;;;;;;;1.90;1.70;;;;;;;10.18;86.88;149854.03;5063373;28;20032;-75
2023/06/03 08:25:01;;;;;;;2.55;1.70;;;;;;;10.34;86.82;149892.56;5061026;28;20345;-73
2023/06/03 08:27:27;;;;;;;2.33;1.65;;;;;;;10.37;87.57;149900.25;5063368;28;20091;-74
2023/06/03 08:29:52;;;;;;;6.03;2.38;;;;;;;10.45;87.12;149919.50;5063259;28;20025;-74
2023/06/03 08:32:18;;;;;;;3.00;1.60;;;;;;;10.50;87.78;149932.31;5063300;28;20021;-73
2023/06/03 08:34:44;;;;;;;4.50;1.92;;;;;;;10.55;88.08;149943.88;5062660;28;20032;-72
2023/06/03 08:37:09;;;;;;;4.40;1.80;;;;;;;10.40;88.38;149907.94;5063378;28;20025;-73
2023/06/03 08:39:35;;;;;;;3.03;1.50;;;;;;;10.44;87.52;149916.94;5064882;28;20102;-72
2023/06/03 08:42:06;;;;;;;2.78;1.42;;;;;;;10.35;87.54;149895.13;5062990;28;20036;-73
2023/06/03 08:44:58;;;;;;;5.55;1.67;;;;;;;10.34;87.03;149892.56;5063400;28;20040;-73
2023/06/03 08:47:48;;;;;;;3.65;1.42;;;;;;;10.11;86.88;149836.09;5060289;28;20061;-74
2023/06/03 08:50:17;;;;;;;1.40;1.30;;;;;;;9.95;88.66;149795.09;5062927;28;20031;-72
2023/06/03 08:52:47;;;;;;;1.50;1.40;;;;;;;9.93;88.63;149789.94;5062982;28;20033;-72
2023/06/03 08:55:15;;;;;;;6.38;1.80;;;;;;;10.03;89.11;149815.56;5061822;28;20027;-72
2023/06/03 08:57:51;;;;;;;1.98;1.35;;;;;;;10.17;88.97;149851.47;5062447;28;20037;-72
2023/06/03 09:00:21;;;;;;;3.63;1.70;;;;;;;10.33;89.34;149889.94;5060166;28;20337;-73
2023/06/03 09:02:49;;;;;;;2.42;1.63;;;;;;;10.22;87.85;149861.72;5063017;28;20024;-74
2023/06/03 09:05:16;;;;;;;2.30;1.13;;;;;;;10.29;88.08;149879.66;5078440;28;20041;-71
2023/06/03 09:07:43;;;;;;;1.38;1.08;;;;;;;10.39;87.67;149905.41;5063237;28;20024;-73
2023/06/03 09:10:11;;;;;;;1.52;1.23;;;;;;;10.25;87.92;149870.72;5062701;28;20032;-72
2023/06/03 09:12:38;;;;;;;1.25;1.15;;;;;;;10.44;88.09;149916.94;5062289;28;20025;-70
2023/06/03 09:15:04;;;;;;;2.83;1.30;;;;;;;10.28;87.57;149877.16;5043804;28;20022;-70
2023/06/03 09:17:30;;;;;;;1.85;1.20;;;;;;;10.46;87.47;149923.34;5063033;28;20052;-69
2023/06/03 09:20:01;;;;;;;3.08;1.17;;;;;;;10.40;87.50;149907.94;5062777;28;20382;-70
2023/06/03 09:22:28;;;;;;;38.42;21.35;;;;;;;10.34;86.54;149892.56;5063162;28;20033;-69
2023/06/03 09:24:53;;;;;;;3.33;1.63;;;;;;;10.21;86.53;149859.19;5058513;28;20325;-70
2023/06/03 09:27:19;;;;;;;1.63;1.50;;;;;;;10.15;86.32;149846.34;5046829;28;20025;-72
2023/06/03 09:29:45;;;;;;;0.95;0.90;;;;;;;10.34;86.14;149892.56;5062954;28;20029;-71
2023/06/03 09:32:10;;;;;;;1.83;1.50;;;;;;;10.05;88.60;149819.41;5062276;28;20088;-71
2023/06/03 09:34:37;;;;;;;1.40;1.30;;;;;;;10.27;87.24;149875.84;5063147;28;20036;-70
2023/06/03 09:37:08;;;;;;;1.73;1.33;;;;;;;9.96;86.15;149797.63;5062625;28;20037;-72
2023/06/03 09:39:35;;;;;;;1.10;1.00;;;;;;;9.98;86.66;149802.78;5056359;28;20036;-68
2023/06/03 09:42:01;;;;;;;1.88;1.33;;;;;;;10.04;87.24;149816.88;5061376;28;20029;-70
2023/06/03 09:44:49;;;;;;;1.95;1.65;;;;;;;9.70;88.27;149733.56;5062945;28;20035;-71
2023/06/03 09:47:17;;;;;;;1.88;1.70;;;;;;;9.92;87.94;149787.38;5045152;28;20038;-74
2023/06/03 09:50:08;;;;;;;2.13;1.25;;;;;;;9.65;87.74;149720.75;5061504;28;20094;-70
2023/06/03 09:52:34;;;;;;;3.50;1.80;;;;;;;9.98;88.25;149802.78;5064597;28;20017;-72
2023/06/03 09:55:07;;;;;;;2.33;1.40;;;;;;;10.05;87.94;149820.72;5065701;28;20040;-72
2023/06/03 09:57:34;;;;;;;1.70;1.48;;;;;;;9.78;88.70;149752.81;5065890;28;20048;-67
2023/06/03 10:00:09;;;;;;;1.70;1.50;;;;;;;9.92;88.49;149787.38;5065772;28;20028;-67
2023/06/03 10:02:43;;;;;;;2.15;1.35;;;;;;;9.78;87.58;149752.81;5066348;28;20025;-67
2023/06/03 10:05:35;;;;;;;13.73;8.55;;;;;;;9.90;88.34;149782.28;5064307;28;20088;-66
2023/06/03 10:08:03;;;;;;;3.25;2.08;;;;;;;9.75;88.77;149746.38;5064641;28;20044;-68
2023/06/03 10:10:30;;;;;;;2.08;1.48;;;;;;;10.04;87.41;149816.88;5066229;28;20050;-69
2023/06/03 10:12:56;;;;;;;1.88;1.30;;;;;;;9.90;87.09;149783.53;5064457;28;20047;-68
2023/06/03 10:15:36;;;;;;;1.45;1.35;;;;;;;9.90;88.00;149782.28;5064793;28;20353;-68
2023/06/03 10:18:03;;;;;;;2.85;1.67;;;;;;;9.94;86.69;149792.53;5066050;28;20284;-69
2023/06/03 10:20:38;;;;;;;3.55;1.48;;;;;;;10.09;88.21;149831.00;5064992;28;20025;-68
2023/06/03 10:23:05;;;;;;;2.60;1.50;;;;;;;10.01;87.89;149811.72;5064368;28;20032;-67
2023/06/03 10:25:35;;;;;;;3.13;1.90;;;;;;;10.09;87.50;149831.00;5065837;28;20027;-68
2023/06/03 10:28:01;;;;;;;2.03;1.73;;;;;;;9.92;87.66;149787.38;5062726;28;20128;-67
2023/06/03 10:30:31;;;;;;;1.88;1.60;;;;;;;10.10;86.34;149832.25;5065615;28;20323;-67
2023/06/03 10:32:58;;;;;;;2.03;1.33;;;;;;;9.83;85.86;149766.91;5063032;28;20021;-67
2023/06/03 10:35:27;;;;;;;1.75;1.65;;;;;;;9.97;86.93;149801.47;5063605;28;20032;-67
2023/06/03 10:37:53;;;;;;;3.85;1.98;;;;;;;10.12;87.10;149838.69;5062531;28;20048;-67
2023/06/03 10:40:20;;;;;;;1.65;1.35;;;;;;;10.21;86.32;149859.19;5065434;28;20082;-70
2023/06/03 10:42:46;;;;;;;1.70;1.60;;;;;;;10.26;84.88;149873.31;5065352;28;20020;-66
2023/06/03 10:45:12;;;;;;;1.83;1.60;;;;;;;10.25;84.79;149869.47;5065178;28;20082;-69
2023/06/03 10:47:43;;;;;;;4.72;1.80;;;;;;;10.23;85.11;149865.56;5064808;28;20036;-69
2023/06/03 10:50:46;;;;;;;4.60;3.27;;;;;;;10.27;85.08;149874.56;5065917;28;20214;-68
2023/06/03 10:53:49;;;;;;;3.08;2.10;;;;;;;10.23;84.45;149864.31;5061832;28;20047;-68
2023/06/03 10:56:21;;;;;;;2.30;1.70;;;;;;;10.00;84.58;149807.88;5062093;28;20108;-68
2023/06/03 10:58:59;;;;;;;2.75;1.90;;;;;;;9.94;84.47;149792.53;5061210;28;20131;-67
2023/06/03 11:02:00;;;;;;;1.92;1.70;;;;;;;9.91;83.18;149784.84;5064880;28;20029;-68
2023/06/03 11:04:31;;;;;;;3.45;1.83;;;;;;;9.68;83.37;149729.72;5062720;28;20029;-68
2023/06/03 11:06:57;;;;;;;2.40;1.63;;;;;;;9.44;82.63;149668.22;5064337;28;20052;-68
2023/06/03 11:09:54;;;;;;;2.10;1.88;;;;;;;9.38;83.01;149652.81;5064644;28;20041;-68
2023/06/03 11:12:20;;;;;;;1.73;1.60;;;;;;;9.79;83.35;149756.63;5059673;28;20109;-69
2023/06/03 11:14:48;;;;;;;2.08;1.70;;;;;;;9.87;83.03;149775.84;5063917;28;20044;-66
2023/06/03 11:17:21;;;;;;;2.20;2.00;;;;;;;9.90;82.55;149783.53;5064853;28;20040;-65
2023/06/03 11:19:53;;;;;;;2.38;1.70;;;;;;;9.89;82.12;149779.69;5064516;28;20350;-66
2023/06/03 11:22:40;;;;;;;6.28;2.28;;;;;;;9.70;82.21;149732.28;5064522;28;20040;-65
2023/06/03 11:25:06;;;;;;;2.20;1.95;;;;;;;9.70;84.31;149732.28;5062881;28;20082;-66
2023/06/03 11:27:32;;;;;;;2.58;1.75;;;;;;;9.60;83.05;149709.19;5063457;28;20120;-65
2023/06/03 11:29:59;;;;;;;3.28;2.10;;;;;;;9.61;83.90;149711.78;5055172;28;20032;-67
2023/06/03 11:32:30;;;;;;;5.30;2.38;;;;;;;9.28;83.88;149628.50;5064466;28;20029;-68